Time;durP1;ratioP1;P1;durP2;ratioP2;P2;SDS_P1;SDS_P2;PMS_P1;PMS_P2;Temp;Humidity;BMP_temperature;BMP_pressure;BME280_temperature;BME280_humidity;BME280_pressure;Samples;Min_cycle;Max_cycle;Signal;HPM_P1;HPM_P2
2023/03/01 00:00:07;;;;;;;75.78;14.80;;;;;;;;;;5073733;28;20209;-66
2023/03/01 00:02:35;;;;;;;79.50;16.48;;;;;;;;;;5074273;28;20262;-66
2023/03/01 00:05:02;;;;;;;80.35;17.10;;;;;;;;;;5074036;28;20222;-66
2023/03/01 00:07:30;;;;;;;82.03;18.45;;;;;;;;;;5073789;28;20208;-66
2023/03/01 00:09:58;;;;;;;77.05;17.55;;;;;;;;;;5073672;28;20205;-66
2023/03/01 00:12:25;;;;;;;79.85;18.50;;;;;;;;;;5073850;28;20205;-66
2023/03/01 00:14:52;;;;;;;82.13;18.50;;;;;;;;;;5073643;28;20580;-66
2023/03/01 00:17:19;;;;;;;84.90;18.05;;;;;;;;;;5073845;28;20323;-66
2023/03/01 00:19:46;;;;;;;81.20;17.67;;;;;;;;;;5073540;28;20209;-66
2023/03/01 00:22:13;;;;;;;80.32;16.90;;;;;;;;;;5073773;28;20216;-66
2023/03/01 00:24:41;;;;;;;79.80;16.42;;;;;;;;;;5073522;28;20243;-66
2023/03/01 00:27:08;;;;;;;78.85;16.58;;;;;;;;;;5073594;28;20205;-66
2023/03/01 00:29:36;;;;;;;78.53;15.55;;;;;;;;;;5073118;28;20578;-66
2023/03/01 00:32:03;;;;;;;79.50;16.80;;;;;;;;;;5073660;28;20208;-66
2023/03/01 00:34:30;;;;;;;79.20;17.27;;;;;;;;;;5073464;28;20205;-66
2023/03/01 00:37:04;;;;;;;75.75;15.23;;;;;;;;;;5073390;28;20595;-66
2023/03/01 00:39:31;;;;;;;79.50;18.10;;;;;;;;;;5072856;28;20229;-66
2023/03/01 00:42:00;;;;;;;80.15;17.05;;;;;;;;;;5073077;28;20209;-66
2023/03/01 00:44:28;;;;;;;76.00;16.63;;;;;;;;;;5073369;28;20232;-66
2023/03/01 00:46:55;;;;;;;78.05;17.38;;;;;;;;;;5073229;28;20316;-66
2023/03/01 00:49:24;;;;;;;86.47;17.38;;;;;;;;;;5072913;28;20224;-66
2023/03/01 00:51:51;;;;;;;79.97;18.25;;;;;;;;;;5073070;28;20296;-66
2023/03/01 00:54:18;;;;;;;83.93;18.95;;;;;;;;;;5072918;28;20216;-66
2023/03/01 00:56:45;;;;;;;81.20;18.77;;;;;;;;;;5073303;28;20224;-66
2023/03/01 00:59:13;;;;;;;82.53;16.92;;;;;;;;;;5072470;28;20227;-66
2023/03/01 01:01:40;;;;;;;78.15;16.85;;;;;;;;;;5072991;28;20205;-66
2023/03/01 01:04:08;;;;;;;87.40;18.23;;;;;;;;;;5072870;28;20212;-66
2023/03/01 01:06:36;;;;;;;77.75;16.05;;;;;;;;;;5072624;28;20717;-66
2023/03/01 01:09:04;;;;;;;84.25;18.90;;;;;;;;;;5071456;28;20197;-66
2023/03/01 01:11:32;;;;;;;86.60;21.45;;;;;;;;;;5072768;28;20208;-66
2023/03/01 01:13:59;;;;;;;82.03;18.92;;;;;;;;;;5072478;28;20225;-66
2023/03/01 01:16:29;;;;;;;85.90;18.55;;;;;;;;;;5072584;28;20225;-66
2023/03/01 01:18:56;;;;;;;84.40;19.40;;;;;;;;;;5072044;28;20217;-66
2023/03/01 01:21:24;;;;;;;85.70;20.42;;;;;;;;;;5072480;28;20208;-66
2023/03/01 01:23:52;;;;;;;83.90;19.33;;;;;;;;;;5072355;28;20585;-66
2023/03/01 01:26:21;;;;;;;86.45;20.25;;;;;;;;;;5072166;28;20332;-66
2023/03/01 01:28:48;;;;;;;79.20;16.40;;;;;;;;;;5071863;28;20212;-66
2023/03/01 01:31:15;;;;;;;84.70;19.48;;;;;;;;;;5072684;28;20205;-66
2023/03/01 01:33:44;;;;;;;83.90;18.75;;;;;;;;;;5072234;28;20682;-66
2023/03/01 01:36:11;;;;;;;85.38;20.25;;;;;;;;;;5071988;28;20237;-66
2023/03/01 01:38:39;;;;;;;78.47;17.27;;;;;;;;;;5071842;28;20237;-66
2023/03/01 01:41:11;;;;;;;80.72;18.13;;;;;;;;;;5072043;28;20212;-66
2023/03/01 01:43:40;;;;;;;80.45;17.80;;;;;;;;;;5072179;28;20202;-66
2023/03/01 01:46:12;;;;;;;78.55;17.80;;;;;;;;;;5071992;28;20320;-66
2023/03/01 01:48:41;;;;;;;79.82;17.77;;;;;;;;;;5071497;28;20681;-66
2023/03/01 01:51:13;;;;;;;81.00;18.23;;;;;;;;;;5072150;28;20216;-66
2023/03/01 01:53:40;;;;;;;84.05;16.73;;;;;;;;;;5072069;28;20219;-66
2023/03/01 01:56:09;;;;;;;76.22;17.75;;;;;;;;;;5071840;28;20254;-66
2023/03/01 01:58:37;;;;;;;77.10;16.80;;;;;;;;;;5071534;28;20717;-66
2023/03/01 02:01:04;;;;;;;81.90;16.77;;;;;;;;;;5071803;28;20201;-66
2023/03/01 02:03:37;;;;;;;79.90;17.98;;;;;;;;;;5072008;28;20578;-66
2023/03/01 02:06:05;;;;;;;80.85;17.25;;;;;;;;;;5071727;28;20224;-66
2023/03/01 02:08:36;;;;;;;81.07;18.10;;;;;;;;;;5071639;28;20230;-66
2023/03/01 02:11:04;;;;;;;79.68;16.98;;;;;;;;;;5071737;28;20694;-66
2023/03/01 02:13:32;;;;;;;81.05;18.15;;;;;;;;;;5071643;28;20262;-66
2023/03/01 02:16:00;;;;;;;80.65;18.38;;;;;;;;;;5070264;28;20243;-69
2023/03/01 02:18:27;;;;;;;79.53;17.35;;;;;;;;;;5071777;28;20593;-66
2023/03/01 02:21:01;;;;;;;81.80;17.02;;;;;;;;;;5071345;28;20588;-66
2023/03/01 02:23:28;;;;;;;81.72;18.48;;;;;;;;;;5071648;28;20673;-67
2023/03/01 02:26:00;;;;;;;78.75;19.23;;;;;;;;;;5071708;28;20242;-67
2023/03/01 02:28:30;;;;;;;77.35;17.40;;;;;;;;;;5071705;28;20572;-67
2023/03/01 02:33:43;;;;;;;81.20;20.50;;;;;;;;;;5071747;28;20270;-67
2023/03/01 02:36:13;;;;;;;81.03;18.40;;;;;;;;;;5071615;28;20226;-67
2023/03/01 02:38:40;;;;;;;81.22;18.02;;;;;;;;;;5071176;28;20252;-67
2023/03/01 02:41:08;;;;;;;77.78;17.17;;;;;;;;;;5071626;28;20206;-67
2023/03/01 02:43:36;;;;;;;81.32;17.60;;;;;;;;;;5071576;28;20217;-67
2023/03/01 02:46:05;;;;;;;83.10;17.52;;;;;;;;;;5071403;28;20231;-67
2023/03/01 02:48:40;;;;;;;78.40;19.05;;;;;;;;;;5071293;28;20197;-67
2023/03/01 02:51:12;;;;;;;81.70;20.58;;;;;;;;;;5071708;28;20216;-67
2023/03/01 02:53:43;;;;;;;83.97;19.60;;;;;;;;;;5071448;28;20214;-67
2023/03/01 02:56:12;;;;;;;80.55;19.25;;;;;;;;;;5071496;28;20230;-67
2023/03/01 02:58:45;;;;;;;80.78;18.52;;;;;;;;;;5071454;28;20221;-67
2023/03/01 03:01:13;;;;;;;82.20;18.20;;;;;;;;;;5071601;28;20697;-66
2023/03/01 03:03:40;;;;;;;89.57;19.77;;;;;;;;;;5071767;28;20224;-67
2023/03/01 03:06:07;;;;;;;83.00;19.00;;;;;;;;;;5071619;28;20228;-67
2023/03/01 03:08:35;;;;;;;79.53;18.55;;;;;;;;;;5071252;28;20209;-67
2023/03/01 03:11:02;;;;;;;82.80;20.45;;;;;;;;;;5071923;28;20201;-68
2023/03/01 03:13:29;;;;;;;80.90;18.00;;;;;;;;;;5071443;28;20208;-67
2023/03/01 03:15:57;;;;;;;84.22;19.73;;;;;;;;;;5071358;28;20722;-67
2023/03/01 03:18:26;;;;;;;82.35;20.10;;;;;;;;;;5071710;28;20239;-67
2023/03/01 03:20:53;;;;;;;84.35;21.45;;;;;;;;;;5071611;28;20274;-67
2023/03/01 03:23:21;;;;;;;86.10;21.10;;;;;;;;;;5071830;28;20674;-67
2023/03/01 03:25:49;;;;;;;89.60;20.88;;;;;;;;;;5071748;28;20240;-67
2023/03/01 03:28:16;;;;;;;83.90;19.48;;;;;;;;;;5071830;28;20288;-67
2023/03/01 03:30:44;;;;;;;79.97;17.52;;;;;;;;;;5071794;28;20215;-67
2023/03/01 03:33:13;;;;;;;80.50;18.13;;;;;;;;;;5073040;28;20208;-67
2023/03/01 03:35:42;;;;;;;81.05;18.52;;;;;;;;;;5074520;28;20232;-67
2023/03/01 03:38:15;;;;;;;81.00;19.50;;;;;;;;;;5074368;28;20204;-67
2023/03/01 03:40:43;;;;;;;82.38;20.02;;;;;;;;;;5075023;28;20550;-67
2023/03/01 03:43:11;;;;;;;82.20;17.55;;;;;;;;;;5075614;28;20208;-67
2023/03/01 03:45:39;;;;;;;80.10;18.88;;;;;;;;;;5074874;28;20232;-67
2023/03/01 03:48:07;;;;;;;86.40;21.05;;;;;;;;;;5074485;28;20579;-67
2023/03/01 03:50:35;;;;;;;80.50;17.67;;;;;;;;;;5074344;28;20459;-67
2023/03/01 03:53:03;;;;;;;82.75;19.02;;;;;;;;;;5074776;28;20210;-67
2023/03/01 03:55:30;;;;;;;82.57;19.70;;;;;;;;;;5074913;28;20254;-67
2023/03/01 03:58:01;;;;;;;80.97;19.15;;;;;;;;;;5074982;28;20207;-67
2023/03/01 04:00:29;;;;;;;82.90;18.90;;;;;;;;;;5074663;28;20648;-67
2023/03/01 04:02:56;;;;;;;81.47;20.17;;;;;;;;;;5075541;28;20213;-67
2023/03/01 04:05:23;;;;;;;82.65;20.67;;;;;;;;;;5074389;28;20259;-67
2023/03/01 04:08:00;;;;;;;85.00;20.00;;;;;;;;;;5074890;28;20591;-67
2023/03/01 04:10:28;;;;;;;83.32;19.70;;;;;;;;;;5074498;28;20598;-67
2023/03/01 04:12:55;;;;;;;81.05;18.58;;;;;;;;;;5074583;28;20205;-67
2023/03/01 04:15:23;;;;;;;84.50;19.58;;;;;;;;;;5074175;28;20249;-67
2023/03/01 04:17:51;;;;;;;79.22;18.77;;;;;;;;;;5073823;28;20676;-67
2023/03/01 04:20:24;;;;;;;81.88;19.23;;;;;;;;;;5073476;28;20225;-67
2023/03/01 04:22:53;;;;;;;81.45;18.58;;;;;;;;;;5074145;28;20247;-67
2023/03/01 04:25:20;;;;;;;82.80;20.67;;;;;;;;;;5073671;28;20247;-67
2023/03/01 04:27:47;;;;;;;83.38;19.77;;;;;;;;;;5073845;28;20205;-67
2023/03/01 04:30:15;;;;;;;78.95;18.65;;;;;;;;;;5073469;28;20625;-67
2023/03/01 04:32:42;;;;;;;82.40;19.55;;;;;;;;;;5073676;28;20691;-68
2023/03/01 04:35:09;;;;;;;83.75;17.80;;;;;;;;;;5073884;28;20232;-67
2023/03/01 04:37:36;;;;;;;79.43;17.75;;;;;;;;;;5073858;28;20218;-67
2023/03/01 04:40:12;;;;;;;77.45;17.60;;;;;;;;;;5073520;28;20259;-67
2023/03/01 04:42:39;;;;;;;82.40;19.58;;;;;;;;;;5073580;28;20209;-68
2023/03/01 04:45:12;;;;;;;80.05;18.50;;;;;;;;;;5073625;28;20230;-67
2023/03/01 04:47:39;;;;;;;82.70;18.77;;;;;;;;;;5073626;28;20212;-69
2023/03/01 04:50:07;;;;;;;79.00;18.00;;;;;;;;;;5072863;28;20204;-69
2023/03/01 04:52:34;;;;;;;79.07;18.58;;;;;;;;;;5073230;28;20207;-69
2023/03/01 04:55:01;;;;;;;81.10;18.20;;;;;;;;;;5073089;28;20280;-68
2023/03/01 04:57:30;;;;;;;86.07;22.52;;;;;;;;;;5073322;28;20577;-68
2023/03/01 04:59:57;;;;;;;85.50;19.55;;;;;;;;;;5072741;28;20228;-68
2023/03/01 05:02:24;;;;;;;82.10;18.52;;;;;;;;;;5073439;28;20203;-68
2023/03/01 05:04:51;;;;;;;83.88;20.10;;;;;;;;;;5073238;28;20285;-68
2023/03/01 05:07:19;;;;;;;80.63;19.50;;;;;;;;;;5073033;28;20222;-68
2023/03/01 05:09:47;;;;;;;87.28;22.02;;;;;;;;;;5072684;28;20253;-68
2023/03/01 05:12:14;;;;;;;88.22;22.27;;;;;;;;;;5073130;28;20211;-68
2023/03/01 05:14:43;;;;;;;82.10;19.95;;;;;;;;;;5073200;28;20207;-68
2023/03/01 05:17:10;;;;;;;88.07;22.88;;;;;;;;;;5072989;28;20211;-68
2023/03/01 05:19:37;;;;;;;85.97;20.48;;;;;;;;;;5072376;28;20722;-68
2023/03/01 05:22:04;;;;;;;85.15;21.33;;;;;;;;;;5072828;28;20207;-68
2023/03/01 05:24:33;;;;;;;82.10;20.23;;;;;;;;;;5072366;28;20702;-68
2023/03/01 05:27:00;;;;;;;84.22;19.90;;;;;;;;;;5072668;28;20789;-68
2023/03/01 05:29:28;;;;;;;83.47;19.23;;;;;;;;;;5072639;28;20200;-68
2023/03/01 05:31:58;;;;;;;78.47;18.48;;;;;;;;;;5073054;28;20211;-68
2023/03/01 05:34:26;;;;;;;82.20;19.38;;;;;;;;;;5072673;28;20249;-68
2023/03/01 05:36:54;;;;;;;82.68;19.60;;;;;;;;;;5072264;28;20711;-68
2023/03/01 05:39:22;;;;;;;82.43;18.10;;;;;;;;;;5072054;28;20574;-68
2023/03/01 05:41:49;;;;;;;83.00;20.20;;;;;;;;;;5072692;28;20215;-68
2023/03/01 05:44:16;;;;;;;81.00;18.00;;;;;;;;;;5072607;28;20211;-66
2023/03/01 05:46:44;;;;;;;81.10;18.48;;;;;;;;;;5072118;28;20228;-68
2023/03/01 05:49:13;;;;;;;82.20;18.63;;;;;;;;;;5071787;28;20201;-68
2023/03/01 05:51:41;;;;;;;88.85;20.05;;;;;;;;;;5072062;28;20223;-68
2023/03/01 05:54:08;;;;;;;82.80;19.50;;;;;;;;;;5072349;28;20241;-68
2023/03/01 05:56:35;;;;;;;85.18;22.45;;;;;;;;;;5072024;28;20227;-68
2023/03/01 05:59:03;;;;;;;83.30;19.50;;;;;;;;;;5072137;28;20204;-68
2023/03/01 06:01:30;;;;;;;83.60;20.20;;;;;;;;;;5072297;28;20734;-68
2023/03/01 06:03:57;;;;;;;82.95;20.38;;;;;;;;;;5072126;28;20207;-68
2023/03/01 06:06:26;;;;;;;87.32;19.50;;;;;;;;;;5072463;28;20223;-68
2023/03/01 06:08:53;;;;;;;83.43;19.30;;;;;;;;;;5072091;28;20218;-68
2023/03/01 06:11:20;;;;;;;79.00;18.88;;;;;;;;;;5071937;28;20213;-68
2023/03/01 06:13:48;;;;;;;80.45;19.08;;;;;;;;;;5072052;28;20678;-68
2023/03/01 06:16:15;;;;;;;89.22;19.90;;;;;;;;;;5072035;28;20221;-68
2023/03/01 06:18:43;;;;;;;85.53;20.02;;;;;;;;;;5071433;28;20670;-68
2023/03/01 06:21:10;;;;;;;79.72;18.92;;;;;;;;;;5072072;28;20238;-68
2023/03/01 06:23:38;;;;;;;81.72;19.10;;;;;;;;;;5071828;28;20203;-66
2023/03/01 06:26:07;;;;;;;83.90;20.42;;;;;;;;;;5071422;28;20235;-66
2023/03/01 06:28:34;;;;;;;86.38;19.40;;;;;;;;;;5071315;28;20218;-66
2023/03/01 06:31:01;;;;;;;84.82;20.83;;;;;;;;;;5071622;28;20667;-68
2023/03/01 06:33:28;;;;;;;82.07;20.27;;;;;;;;;;5071468;28;20211;-66
2023/03/01 06:35:56;;;;;;;83.32;19.83;;;;;;;;;;5072125;28;20228;-68
2023/03/01 06:38:23;;;;;;;83.60;20.73;;;;;;;;;;5071578;28;20218;-68
2023/03/01 06:40:56;;;;;;;87.47;19.50;;;;;;;;;;5071138;28;20694;-66
2023/03/01 06:43:23;;;;;;;80.20;19.50;;;;;;;;;;5071631;28;20261;-66
2023/03/01 06:45:50;;;;;;;86.63;20.20;;;;;;;;;;5071360;28;20230;-66
2023/03/01 06:48:17;;;;;;;87.10;19.23;;;;;;;;;;5071356;28;20228;-66
2023/03/01 06:50:44;;;;;;;83.55;20.27;;;;;;;;;;5071385;28;20197;-66
2023/03/01 06:53:11;;;;;;;80.30;19.42;;;;;;;;;;5071639;28;20677;-66
2023/03/01 06:55:38;;;;;;;85.35;21.00;;;;;;;;;;5071263;28;20228;-66
2023/03/01 06:58:07;;;;;;;86.93;20.95;;;;;;;;;;5071278;28;20208;-66
2023/03/01 07:00:34;;;;;;;89.18;21.20;;;;;;;;;;5070889;28;20229;-66
2023/03/01 07:03:03;;;;;;;82.28;19.48;;;;;;;;;;5071203;28;20211;-66
2023/03/01 07:05:30;;;;;;;85.63;20.83;;;;;;;;;;5071617;28;20231;-67
2023/03/01 07:07:57;;;;;;;81.00;20.27;;;;;;;;;;5072860;28;20219;-67
2023/03/01 07:10:24;;;;;;;127.65;24.13;;;;;;;;;;5074964;28;20554;-67
2023/03/01 07:12:51;;;;;;;91.85;22.63;;;;;;;;;;5075117;28;20242;-67
2023/03/01 07:15:20;;;;;;;88.22;21.48;;;;;;;;;;5075087;28;20222;-67
2023/03/01 07:17:49;;;;;;;85.50;20.20;;;;;;;;;;5074920;28;20582;-67
2023/03/01 07:20:16;;;;;;;87.82;22.65;;;;;;;;;;5074557;28;20331;-67
2023/03/01 07:22:44;;;;;;;85.65;22.70;;;;;;;;;;5074945;28;20240;-67
2023/03/01 07:25:11;;;;;;;81.22;19.27;;;;;;;;;;5074411;28;20247;-67
2023/03/01 07:27:38;;;;;;;87.47;21.10;;;;;;;;;;5074572;28;20229;-67
2023/03/01 07:30:06;;;;;;;84.95;20.33;;;;;;;;;;5074563;28;20212;-67
2023/03/01 07:32:34;;;;;;;89.85;20.58;;;;;;;;;;5074762;28;20213;-67
2023/03/01 07:35:01;;;;;;;89.55;22.52;;;;;;;;;;5074680;28;20231;-67
2023/03/01 07:37:28;;;;;;;83.93;20.05;;;;;;;;;;5074512;28;20212;-67
2023/03/01 07:39:55;;;;;;;84.05;20.85;;;;;;;;;;5074044;28;20230;-67
2023/03/01 07:42:22;;;;;;;86.13;20.10;;;;;;;;;;5074881;28;20204;-68
2023/03/01 07:44:50;;;;;;;87.10;20.73;;;;;;;;;;5074537;28;20214;-68
2023/03/01 07:47:17;;;;;;;83.93;20.15;;;;;;;;;;5074559;28;20333;-68
2023/03/01 07:49:45;;;;;;;84.30;21.75;;;;;;;;;;5074027;28;20205;-68
2023/03/01 07:52:12;;;;;;;82.47;20.63;;;;;;;;;;5074381;28;20230;-68
2023/03/01 07:54:39;;;;;;;82.70;19.83;;;;;;;;;;5074120;28;20265;-68
2023/03/01 07:57:06;;;;;;;83.40;20.10;;;;;;;;;;5074280;28;20220;-68
2023/03/01 07:59:34;;;;;;;81.28;20.98;;;;;;;;;;5074059;28;20588;-68
2023/03/01 08:02:01;;;;;;;85.05;21.48;;;;;;;;;;5074494;28;20212;-68
2023/03/01 08:04:28;;;;;;;83.35;20.67;;;;;;;;;;5074343;28;20218;-68
2023/03/01 08:06:56;;;;;;;92.07;22.35;;;;;;;;;;5073945;28;20230;-68
2023/03/01 08:09:24;;;;;;;84.53;20.17;;;;;;;;;;5073924;28;20204;-68
2023/03/01 08:11:51;;;;;;;80.03;19.75;;;;;;;;;;5074024;28;20213;-68
2023/03/01 08:14:18;;;;;;;90.88;20.48;;;;;;;;;;5074232;28;20208;-68
2023/03/01 08:16:45;;;;;;;84.90;19.77;;;;;;;;;;5074078;28;20229;-68
2023/03/01 08:19:13;;;;;;;89.88;21.27;;;;;;;;;;5073246;28;20213;-68
2023/03/01 08:21:40;;;;;;;85.00;20.00;;;;;;;;;;5073522;28;20235;-68
2023/03/01 08:24:10;;;;;;;83.47;20.42;;;;;;;;;;5073976;28;20205;-68
2023/03/01 08:26:37;;;;;;;82.30;21.00;;;;;;;;;;5074044;28;20492;-68
2023/03/01 08:29:05;;;;;;;89.95;21.88;;;;;;;;;;5073562;28;20249;-68
2023/03/01 08:31:35;;;;;;;88.00;22.48;;;;;;;;;;5073850;28;20200;-68
2023/03/01 08:34:02;;;;;;;77.78;19.35;;;;;;;;;;5073556;28;20202;-68
2023/03/01 08:36:31;;;;;;;84.68;20.70;;;;;;;;;;5073509;28;20751;-68
2023/03/01 08:38:58;;;;;;;84.82;20.83;;;;;;;;;;5073159;28;20208;-68
2023/03/01 08:41:26;;;;;;;81.18;19.73;;;;;;;;;;5073509;28;20229;-68
2023/03/01 08:43:58;;;;;;;81.75;20.65;;;;;;;;;;5073870;28;20658;-68
2023/03/01 08:46:25;;;;;;;80.95;18.92;;;;;;;;;;5073411;28;20593;-68
2023/03/01 08:48:52;;;;;;;86.53;19.98;;;;;;;;;;5072752;28;20677;-68
2023/03/01 08:51:20;;;;;;;81.05;19.55;;;;;;;;;;5073534;28;20296;-68
2023/03/01 08:53:48;;;;;;;80.20;19.60;;;;;;;;;;5073216;28;20266;-68
2023/03/01 08:56:16;;;;;;;87.53;21.60;;;;;;;;;;5073198;28;20721;-68
2023/03/01 08:58:47;;;;;;;81.45;20.17;;;;;;;;;;5073141;28;20251;-68
2023/03/01 09:01:15;;;;;;;84.18;19.10;;;;;;;;;;5072947;28;20235;-68
2023/03/01 09:03:42;;;;;;;80.25;19.17;;;;;;;;;;5072975;28;20692;-66
2023/03/01 09:06:09;;;;;;;88.30;22.25;;;;;;;;;;5072921;28;20723;-68
2023/03/01 09:08:36;;;;;;;83.93;20.80;;;;;;;;;;5072685;28;20205;-68
2023/03/01 09:11:04;;;;;;;87.40;18.52;;;;;;;;;;5073371;28;20296;-68
2023/03/01 09:13:31;;;;;;;82.90;18.88;;;;;;;;;;5072873;28;20205;-68
2023/03/01 09:16:00;;;;;;;79.65;19.48;;;;;;;;;;5072836;28;20260;-68
2023/03/01 09:18:27;;;;;;;81.25;18.73;;;;;;;;;;5072960;28;20224;-68
2023/03/01 09:20:55;;;;;;;89.30;20.70;;;;;;;;;;5073135;28;20228;-68
2023/03/01 09:23:22;;;;;;;83.43;20.08;;;;;;;;;;5073070;28;20209;-68
2023/03/01 09:25:49;;;;;;;81.20;18.65;;;;;;;;;;5072591;28;20244;-68
2023/03/01 09:28:17;;;;;;;82.55;19.23;;;;;;;;;;5072332;28;20212;-68
2023/03/01 09:30:44;;;;;;;82.25;18.88;;;;;;;;;;5071733;28;20549;-66
2023/03/01 09:33:14;;;;;;;83.40;21.95;;;;;;;;;;5072501;28;20209;-66
2023/03/01 09:35:45;;;;;;;82.28;20.40;;;;;;;;;;5072447;28;20263;-67
2023/03/01 09:38:13;;;;;;;80.45;19.77;;;;;;;;;;5072167;28;20241;-66
2023/03/01 09:40:43;;;;;;;86.38;19.70;;;;;;;;;;5071903;28;20225;-66
2023/03/01 09:43:14;;;;;;;82.70;20.42;;;;;;;;;;5072170;28;20241;-66
2023/03/01 09:45:43;;;;;;;82.80;19.45;;;;;;;;;;5072161;28;20229;-66
2023/03/01 09:48:14;;;;;;;79.68;18.55;;;;;;;;;;5071959;28;20694;-66
2023/03/01 09:50:43;;;;;;;77.25;18.05;;;;;;;;;;5071889;28;20197;-66
2023/03/01 09:53:12;;;;;;;76.90;16.98;;;;;;;;;;5071902;28;20587;-66
2023/03/01 09:55:41;;;;;;;76.40;19.03;;;;;;;;;;5072099;28;20643;-66
2023/03/01 09:58:23;;;;;;;78.50;18.40;;;;;;;;;;5071915;28;20453;-66
2023/03/01 10:00:51;;;;;;;78.20;17.30;;;;;;;;;;5071531;28;20486;-66
2023/03/01 10:03:23;;;;;;;76.40;17.67;;;;;;;;;;5071997;28;20451;-66
2023/03/01 10:06:02;;;;;;;75.30;17.70;;;;;;;;;;5071845;28;20475;-68
2023/03/01 10:08:33;;;;;;;77.23;17.97;;;;;;;;;;5072175;28;20534;-68
2023/03/01 10:11:00;;;;;;;76.40;18.10;;;;;;;;;;5072241;28;20689;-68
2023/03/01 10:13:29;;;;;;;76.90;18.10;;;;;;;;;;5072167;28;20933;-68
2023/03/01 10:15:58;;;;;;;77.17;18.03;;;;;;;;;;5071660;28;20992;-68
2023/03/01 10:18:28;;;;;;;77.17;19.80;;;;;;;;;;5071854;28;20843;-69
2023/03/01 10:20:57;;;;;;;81.47;17.90;;;;;;;;;;5071661;28;20478;-66
2023/03/01 10:23:25;;;;;;;75.57;18.30;;;;;;;;;;5071689;28;20443;-68
2023/03/01 10:25:58;;;;;;;77.23;19.87;;;;;;;;;;5071432;28;20525;-67
2023/03/01 10:28:28;;;;;;;76.67;19.80;;;;;;;;;;5071598;28;20478;-68
2023/03/01 10:30:55;;;;;;;80.10;19.00;;;;;;;;;;5071586;28;20473;-68
2023/03/01 10:33:23;;;;;;;76.13;18.30;;;;;;;;;;5071366;28;20451;-67
2023/03/01 10:35:52;;;;;;;74.40;18.30;;;;;;;;;;5071420;28;20847;-67
2023/03/01 10:38:20;;;;;;;75.60;18.97;;;;;;;;;;5071423;28;20542;-66
2023/03/01 10:40:56;;;;;;;76.00;19.23;;;;;;;;;;5071270;28;20913;-67
2023/03/01 10:43:24;;;;;;;76.10;18.67;;;;;;;;;;5075558;28;20447;-67
2023/03/01 10:45:52;;;;;;;77.20;19.13;;;;;;;;;;5075776;28;20473;-67
2023/03/01 10:48:23;;;;;;;74.07;19.03;;;;;;;;;;5075310;28;20459;-67
2023/03/01 10:50:52;;;;;;;76.17;19.23;;;;;;;;;;5075657;28;20483;-69
2023/03/01 10:53:28;;;;;;;73.00;18.00;;;;;;;;;;5075308;28;20529;-67
2023/03/01 10:56:00;;;;;;;73.87;18.70;;;;;;;;;;5075195;28;20566;-67
2023/03/01 10:58:27;;;;;;;76.10;20.00;;;;;;;;;;5075335;28;20531;-67
2023/03/01 11:00:55;;;;;;;76.07;18.00;;;;;;;;;;5075049;28;20844;-67
2023/03/01 11:03:27;;;;;;;75.60;18.87;;;;;;;;;;5075141;28;20443;-67
2023/03/01 11:06:00;;;;;;;72.67;17.50;;;;;;;;;;5074780;28;20471;-67
2023/03/01 11:08:31;;;;;;;72.77;18.27;;;;;;;;;;5074993;28;20447;-67
2023/03/01 11:11:05;;;;;;;72.07;17.27;;;;;;;;;;5074928;28;20446;-69
2023/03/01 11:13:32;;;;;;;73.50;18.73;;;;;;;;;;5075152;28;20962;-69
2023/03/01 11:16:00;;;;;;;74.20;18.90;;;;;;;;;;5074890;28;20467;-68
2023/03/01 11:18:29;;;;;;;72.10;17.80;;;;;;;;;;5074781;28;20447;-67
2023/03/01 11:20:56;;;;;;;71.93;17.97;;;;;;;;;;5074614;28;20447;-67
2023/03/01 11:23:25;;;;;;;70.77;17.20;;;;;;;;;;5075202;28;20453;-70
2023/03/01 11:25:55;;;;;;;73.50;18.20;;;;;;;;;;5074729;28;20510;-69
2023/03/01 11:28:23;;;;;;;71.10;17.27;;;;;;;;;;5074882;28;20463;-68
2023/03/01 11:30:53;;;;;;;68.77;16.10;;;;;;;;;;5074723;28;20443;-70
2023/03/01 11:33:23;;;;;;;71.93;17.33;;;;;;;;;;5074792;28;20480;-67
2023/03/01 11:35:56;;;;;;;71.43;17.27;;;;;;;;;;5074846;28;20640;-70
2023/03/01 11:38:26;;;;;;;71.87;17.60;;;;;;;;;;5074946;28;20458;-70
2023/03/01 11:40:58;;;;;;;71.57;16.93;;;;;;;;;;5074433;28;20451;-70
2023/03/01 11:43:28;;;;;;;71.53;17.67;;;;;;;;;;5074735;28;20451;-70
2023/03/01 11:46:03;;;;;;;70.47;16.97;;;;;;;;;;5074555;28;20995;-70
2023/03/01 11:48:41;;;;;;;69.80;16.27;;;;;;;;;;5074406;28;20831;-67
2023/03/01 11:51:10;;;;;;;71.10;17.10;;;;;;;;;;5074903;28;20469;-69
2023/03/01 11:53:53;;;;;;;68.93;16.27;;;;;;;;;;5073888;28;20451;-69
2023/03/01 11:56:26;;;;;;;74.47;17.57;;;;;;;;;;5073903;28;20478;-68
2023/03/01 11:59:01;;;;;;;70.50;17.23;;;;;;;;;;5074046;28;20827;-67
2023/03/01 12:01:43;;;;;;;69.47;17.07;;;;;;;;;;5074147;28;20475;-67
2023/03/01 12:04:20;;;;;;;69.00;15.83;;;;;;;;;;5061339;28;20863;-67
2023/03/01 12:06:54;;;;;;;69.50;16.63;;;;;;;;;;5074303;28;20479;-67
2023/03/01 12:09:42;;;;;;;71.30;17.87;;;;;;;;;;5073586;28;20439;-68
2023/03/01 12:12:19;;;;;;;69.23;16.80;;;;;;;;;;5048266;28;20827;-68
2023/03/01 12:14:51;;;;;;;69.67;16.40;;;;;;;;;;5073951;28;20459;-68
2023/03/01 12:17:40;;;;;;;69.70;17.07;;;;;;;;;;5073997;28;20455;-70
2023/03/01 12:20:15;;;;;;;73.67;17.43;;;;;;;;;;5073575;28;20450;-67
2023/03/01 12:22:46;;;;;;;69.63;17.20;;;;;;;;;;5074295;28;20483;-69
2023/03/01 12:25:20;;;;;;;68.50;15.30;;;;;;;;;;5073428;28;20477;-69
2023/03/01 12:28:03;;;;;;;68.67;15.73;;;;;;;;;;5073898;28;20455;-67
2023/03/01 12:30:35;;;;;;;69.53;16.07;;;;;;;;;;5073564;28;20960;-69
2023/03/01 12:33:09;;;;;;;69.13;16.10;;;;;;;;;;5073742;28;20451;-67
2023/03/01 12:35:59;;;;;;;70.70;16.43;;;;;;;;;;5073340;28;20477;-67
2023/03/01 12:38:36;;;;;;;71.17;16.90;;;;;;;;;;5073448;28;20458;-67
2023/03/01 12:41:10;;;;;;;70.03;15.23;;;;;;;;;;5073152;28;20457;-67
2023/03/01 12:43:46;;;;;;;68.40;15.20;;;;;;;;;;5073291;28;20446;-67
2023/03/01 12:46:19;;;;;;;67.97;15.50;;;;;;;;;;5073040;28;20496;-67
2023/03/01 12:48:50;;;;;;;71.50;16.60;;;;;;;;;;5073049;28;20835;-66
2023/03/01 12:51:20;;;;;;;68.33;15.10;;;;;;;;;;5073423;28;20818;-69
2023/03/01 12:53:49;;;;;;;69.70;15.90;;;;;;;;;;5073147;28;20458;-69
2023/03/01 12:56:18;;;;;;;66.97;13.67;;;;;;;;;;5072821;28;20478;-67
2023/03/01 12:58:53;;;;;;;67.07;15.30;;;;;;;;;;5072724;28;20817;-67
2023/03/01 13:01:24;;;;;;;69.67;16.17;;;;;;;;;;5072809;28;20443;-67
2023/03/01 13:04:09;;;;;;;68.43;14.77;;;;;;;;;;5073015;28;20454;-67
2023/03/01 13:06:40;;;;;;;68.30;15.97;;;;;;;;;;5072136;28;20490;-67
2023/03/01 13:09:11;;;;;;;71.70;16.30;;;;;;;;;;5072588;28;20486;-67
2023/03/01 13:11:42;;;;;;;71.27;16.70;;;;;;;;;;5072800;28;20936;-67
2023/03/01 13:14:28;;;;;;;70.60;16.53;;;;;;;;;;5073238;28;20447;-68
2023/03/01 13:16:57;;;;;;;69.37;16.60;;;;;;;;;;5072988;28;20495;-67
2023/03/01 13:19:24;;;;;;;68.50;17.23;;;;;;;;;;5072254;28;20439;-68
2023/03/01 13:21:53;;;;;;;67.60;16.50;;;;;;;;;;5072670;28;20456;-67
2023/03/01 13:24:28;;;;;;;68.00;16.20;;;;;;;;;;5072312;28;20990;-68
2023/03/01 13:27:11;;;;;;;67.87;15.63;;;;;;;;;;5072615;28;20475;-68
2023/03/01 13:29:45;;;;;;;68.47;17.20;;;;;;;;;;5072106;28;20473;-68
2023/03/01 13:32:22;;;;;;;70.47;17.17;;;;;;;;;;5072739;28;20486;-68
2023/03/01 13:35:00;;;;;;;69.23;17.27;;;;;;;;;;5072632;28;20461;-68
2023/03/01 13:37:30;;;;;;;70.80;19.07;;;;;;;;;;5072558;28;20443;-68
2023/03/01 13:39:58;;;;;;;72.30;19.77;;;;;;;;;;5071742;28;20447;-68
2023/03/01 13:42:46;;;;;;;70.30;18.33;;;;;;;;;;5072051;28;20920;-67
2023/03/01 13:45:21;;;;;;;70.63;19.27;;;;;;;;;;5067330;28;20528;-68
2023/03/01 13:47:51;;;;;;;73.67;19.47;;;;;;;;;;5072240;28;20818;-68
2023/03/01 13:50:21;;;;;;;69.97;18.30;;;;;;;;;;5072135;28;20827;-68
2023/03/01 13:52:51;;;;;;;72.47;20.40;;;;;;;;;;5072243;28;20479;-68
2023/03/01 13:55:20;;;;;;;70.90;19.57;;;;;;;;;;5072295;28;20475;-68
2023/03/01 13:57:53;;;;;;;72.20;20.57;;;;;;;;;;5072196;28;20821;-70
2023/03/01 14:00:31;;;;;;;76.40;19.93;;;;;;;;;;5071952;28;20520;-67
2023/03/01 14:03:04;;;;;;;72.17;19.17;;;;;;;;;;5072086;28;20454;-70
2023/03/01 14:05:31;;;;;;;71.17;19.87;;;;;;;;;;5071910;28;20493;-68
2023/03/01 14:07:59;;;;;;;69.47;18.27;;;;;;;;;;5072049;28;20444;-67
2023/03/01 14:10:30;;;;;;;75.00;20.17;;;;;;;;;;5071576;28;20948;-68
2023/03/01 14:13:02;;;;;;;72.97;19.77;;;;;;;;;;5071791;28;20475;-67
2023/03/01 14:15:33;;;;;;;70.37;18.60;;;;;;;;;;5071785;28;21009;-67
2023/03/01 14:18:04;;;;;;;70.80;18.10;;;;;;;;;;5071390;28;20442;-68
2023/03/01 14:20:35;;;;;;;71.27;19.30;;;;;;;;;;5071693;28;20455;-68
2023/03/01 14:23:03;;;;;;;70.30;19.27;;;;;;;;;;5072067;28;20545;-68
2023/03/01 14:25:32;;;;;;;71.10;18.63;;;;;;;;;;5071788;28;20909;-68
2023/03/01 14:28:05;;;;;;;71.20;18.10;;;;;;;;;;5071639;28;20471;-68
2023/03/01 14:30:35;;;;;;;70.07;18.43;;;;;;;;;;5071102;28;20535;-66